createdAt,value
2018-10-06T00:00:46.806Z,11.20
2018-10-06T00:03:15.543Z,11.20
2018-10-06T00:05:44.267Z,11.20
2018-10-06T00:08:18.269Z,11.20
2018-10-06T00:10:47.474Z,11.20
2018-10-06T00:13:16.030Z,11.20
2018-10-06T00:15:44.800Z,11.20
2018-10-06T00:18:13.677Z,11.20
2018-10-06T00:20:42.456Z,11.10
2018-10-06T00:23:11.394Z,11.10
2018-10-06T00:25:40.221Z,11.00
2018-10-06T00:28:09.136Z,11.00
2018-10-06T00:30:38.274Z,10.90
2018-10-06T00:33:07.231Z,10.90
2018-10-06T00:35:35.754Z,10.80
2018-10-06T00:38:04.579Z,10.80
2018-10-06T00:40:33.605Z,10.80
2018-10-06T00:44:27.134Z,10.90
2018-10-06T00:46:56.795Z,10.80
2018-10-06T00:49:25.253Z,10.80
2018-10-06T00:51:54.084Z,10.80
2018-10-06T00:54:22.637Z,10.70
2018-10-06T00:56:51.208Z,10.70
2018-10-06T00:59:19.969Z,10.70
2018-10-06T01:01:48.722Z,10.70
2018-10-06T01:04:17.448Z,10.60
2018-10-06T01:06:46.368Z,10.60
2018-10-06T01:09:14.889Z,10.60
2018-10-06T01:11:43.541Z,10.60
2018-10-06T01:14:12.286Z,10.60
2018-10-06T01:16:41.028Z,10.60
2018-10-06T01:19:09.712Z,10.60
2018-10-06T01:21:38.252Z,10.60
2018-10-06T01:24:06.881Z,10.60
2018-10-06T01:26:35.752Z,10.70
2018-10-06T01:29:04.161Z,10.80
2018-10-06T01:31:32.845Z,10.80
2018-10-06T01:34:01.634Z,10.80
2018-10-06T01:36:30.433Z,10.90
2018-10-06T01:38:59.272Z,10.90
2018-10-06T01:41:27.910Z,10.90
2018-10-06T01:43:56.572Z,11.00
2018-10-06T01:46:25.244Z,11.00
2018-10-06T01:48:54.157Z,11.10
2018-10-06T01:51:22.796Z,11.10
2018-10-06T01:53:51.709Z,11.20
2018-10-06T01:56:20.242Z,11.20
2018-10-06T01:58:48.916Z,11.20
2018-10-06T02:01:17.580Z,11.20
2018-10-06T02:03:46.272Z,11.20
2018-10-06T02:06:15.183Z,11.20
2018-10-06T02:08:44.029Z,11.10
2018-10-06T02:11:12.861Z,11.10
2018-10-06T02:13:41.773Z,11.20
2018-10-06T02:16:10.624Z,11.20
2018-10-06T02:18:39.574Z,11.20
2018-10-06T02:21:08.260Z,11.20
2018-10-06T02:23:37.170Z,11.20
2018-10-06T02:26:06.532Z,11.20
2018-10-06T02:28:35.089Z,11.10
2018-10-06T02:31:04.159Z,11.10
2018-10-06T02:33:32.590Z,11.10
2018-10-06T02:36:01.199Z,11.10
2018-10-06T02:38:30.121Z,11.10
2018-10-06T02:40:58.708Z,11.10
2018-10-06T02:43:27.512Z,11.10
2018-10-06T02:45:57.345Z,11.10
2018-10-06T02:48:26.258Z,11.20
2018-10-06T02:50:55.064Z,11.20
2018-10-06T02:53:23.810Z,11.20
2018-10-06T02:55:52.643Z,11.30
2018-10-06T02:58:21.009Z,11.30
2018-10-06T03:00:49.924Z,11.30
2018-10-06T03:03:18.453Z,11.30
2018-10-06T03:05:48.537Z,11.40
2018-10-06T03:08:18.377Z,11.40
2018-10-06T03:10:46.895Z,11.40
2018-10-06T03:13:15.729Z,11.50
2018-10-06T03:18:37.203Z,11.50
2018-10-06T03:21:06.229Z,11.50
2018-10-06T03:23:34.924Z,11.60
2018-10-06T03:26:03.626Z,11.60
2018-10-06T03:28:32.261Z,11.60
2018-10-06T03:31:01.297Z,11.60
2018-10-06T03:33:29.747Z,11.60
2018-10-06T03:35:58.496Z,11.70
2018-10-06T03:38:27.241Z,11.70
2018-10-06T03:40:56.025Z,11.70
2018-10-06T03:43:24.440Z,11.70
2018-10-06T03:45:53.071Z,11.70
2018-10-06T03:48:21.905Z,11.80
2018-10-06T03:50:51.007Z,11.70
2018-10-06T03:53:19.559Z,11.80
2018-10-06T03:55:49.443Z,11.80
2018-10-06T03:59:42.560Z,11.80
2018-10-06T04:02:10.873Z,11.80
2018-10-06T04:06:09.025Z,11.90
2018-10-06T04:08:37.526Z,11.90
2018-10-06T04:11:06.557Z,12.00
2018-10-06T04:13:35.180Z,12.00
2018-10-06T04:16:03.952Z,12.00
2018-10-06T04:18:32.818Z,12.00
2018-10-06T04:21:01.529Z,12.00
2018-10-06T04:23:30.694Z,12.00
2018-10-06T04:25:59.173Z,11.90
2018-10-06T04:28:27.920Z,12.00
2018-10-06T04:30:56.759Z,11.90
2018-10-06T04:33:25.685Z,11.90
2018-10-06T04:35:54.500Z,11.90
2018-10-06T04:38:23.260Z,11.90
2018-10-06T04:40:52.088Z,11.90
2018-10-06T04:43:20.929Z,12.00
2018-10-06T04:45:49.705Z,12.00
2018-10-06T04:48:18.333Z,12.10
2018-10-06T04:50:47.084Z,12.10
2018-10-06T04:53:15.803Z,12.20
2018-10-06T04:55:44.308Z,12.20
2018-10-06T04:58:13.049Z,12.20
2018-10-06T05:00:42.077Z,12.20
2018-10-06T05:03:10.964Z,12.20
2018-10-06T05:05:39.745Z,12.10
2018-10-06T05:08:09.585Z,12.20
2018-10-06T05:10:38.325Z,12.10
2018-10-06T05:13:07.178Z,12.20
2018-10-06T05:15:35.817Z,12.20
2018-10-06T05:18:04.463Z,12.20
2018-10-06T05:20:33.298Z,12.20
2018-10-06T05:23:01.937Z,12.20
2018-10-06T05:25:30.669Z,12.20
2018-10-06T05:27:59.544Z,12.30
2018-10-06T05:30:28.237Z,12.30
2018-10-06T05:32:56.891Z,12.30
2018-10-06T05:35:25.562Z,12.20
2018-10-06T05:37:54.410Z,12.30
2018-10-06T05:40:23.671Z,12.20
2018-10-06T05:43:00.161Z,12.20
2018-10-06T05:45:34.879Z,12.20
2018-10-06T05:48:03.121Z,12.10
2018-10-06T05:50:32.646Z,12.10
2018-10-06T05:53:00.893Z,12.10
2018-10-06T05:55:29.785Z,12.00
2018-10-06T05:57:59.502Z,12.00
2018-10-06T06:00:27.826Z,12.10
2018-10-06T06:02:56.558Z,12.00
2018-10-06T06:05:25.476Z,12.00
2018-10-06T06:07:54.548Z,11.90
2018-10-06T06:10:24.101Z,11.90
2018-10-06T06:12:53.012Z,11.90
2018-10-06T06:15:21.848Z,11.90
2018-10-06T06:17:50.481Z,11.80
2018-10-06T06:20:19.276Z,11.80
2018-10-06T06:22:47.806Z,11.80
2018-10-06T06:25:17.112Z,11.80
2018-10-06T06:27:47.129Z,11.80
2018-10-06T06:30:15.965Z,11.80
2018-10-06T06:32:44.702Z,11.80
2018-10-06T06:35:13.421Z,11.80
2018-10-06T06:37:42.212Z,11.80
2018-10-06T06:40:10.846Z,11.80
2018-10-06T06:42:39.458Z,11.90
2018-10-06T06:45:08.203Z,11.90
2018-10-06T06:47:36.920Z,11.90
2018-10-06T06:50:05.604Z,11.90
2018-10-06T06:52:34.508Z,11.90
2018-10-06T06:55:03.560Z,12.00
2018-10-06T06:57:32.437Z,12.00
2018-10-06T07:00:01.474Z,12.00
2018-10-06T07:02:30.301Z,12.00
2018-10-06T07:04:59.208Z,12.10
2018-10-06T07:07:28.268Z,12.20
2018-10-06T07:09:57.533Z,12.30
2018-10-06T07:12:29.276Z,12.40
2018-10-06T07:14:57.509Z,12.50
2018-10-06T07:17:29.768Z,12.60
2018-10-06T07:19:58.245Z,12.70
2018-10-06T07:22:26.994Z,12.90
2018-10-06T07:24:55.721Z,13.00
2018-10-06T07:27:27.404Z,13.10
2018-10-06T07:29:57.537Z,13.20
2018-10-06T07:32:25.833Z,13.30
2018-10-06T07:34:54.695Z,13.50
2018-10-06T07:37:23.217Z,13.60
2018-10-06T07:39:51.850Z,13.70
2018-10-06T07:42:20.809Z,13.80
2018-10-06T07:44:49.606Z,13.80
2018-10-06T07:47:18.385Z,13.90
2018-10-06T07:49:48.049Z,14.00
2018-10-06T07:52:17.253Z,14.20
2018-10-06T07:54:45.578Z,14.30
2018-10-06T07:57:14.204Z,14.50
2018-10-06T07:59:43.264Z,14.60
2018-10-06T08:02:11.796Z,14.60
2018-10-06T08:04:41.552Z,14.80
2018-10-06T08:07:11.498Z,14.90
2018-10-06T08:09:40.117Z,15.10
2018-10-06T08:12:09.327Z,15.20
2018-10-06T08:14:37.977Z,15.30
2018-10-06T08:17:06.876Z,15.50
2018-10-06T08:19:35.417Z,15.60
2018-10-06T08:22:04.224Z,15.80
2018-10-06T08:24:33.253Z,16.00
2018-10-06T08:27:01.633Z,15.90
2018-10-06T08:29:30.378Z,16.00
2018-10-06T08:31:59.140Z,16.00
2018-10-06T08:34:28.950Z,16.20
2018-10-06T08:36:57.590Z,16.40
2018-10-06T08:46:27.566Z,16.70
2018-10-06T08:48:55.997Z,17.00
2018-10-06T08:51:24.961Z,17.10
2018-10-06T08:53:53.297Z,17.20
2018-10-06T08:56:23.264Z,17.40
2018-10-06T08:58:51.972Z,17.50
2018-10-06T09:01:20.309Z,17.50
2018-10-06T09:03:48.864Z,17.60
2018-10-06T09:06:17.415Z,17.60
2018-10-06T09:08:46.055Z,17.70
2018-10-06T09:11:14.842Z,17.70
2018-10-06T09:13:43.309Z,17.70
2018-10-06T09:16:12.058Z,17.80
2018-10-06T09:20:09.815Z,17.90
2018-10-06T09:22:38.156Z,17.90
2018-10-06T09:25:06.876Z,18.00
2018-10-06T09:27:35.409Z,17.90
2018-10-06T09:30:04.149Z,17.80
2018-10-06T09:32:32.580Z,17.70
2018-10-06T09:35:01.213Z,17.70
2018-10-06T09:37:29.949Z,17.70
2018-10-06T09:39:58.612Z,17.70
2018-10-06T09:42:27.276Z,18.00
2018-10-06T09:44:55.909Z,18.10
2018-10-06T09:47:24.557Z,18.30
2018-10-06T09:49:53.156Z,18.50
2018-10-06T09:52:21.857Z,18.60
2018-10-06T09:54:50.385Z,18.60
2018-10-06T09:57:19.000Z,18.80
2018-10-06T09:59:47.569Z,18.80
2018-10-06T10:02:21.489Z,19.00
2018-10-06T10:04:50.035Z,19.00
2018-10-06T10:07:19.372Z,19.10
2018-10-06T10:09:48.244Z,19.20
2018-10-06T10:12:16.631Z,19.20
2018-10-06T10:14:45.646Z,19.30
2018-10-06T10:18:43.313Z,19.40
2018-10-06T10:21:11.597Z,19.50
2018-10-06T10:23:41.161Z,19.60
2018-10-06T10:26:09.781Z,19.70
2018-10-06T10:28:38.631Z,19.90
2018-10-06T10:31:07.248Z,19.90
2018-10-06T10:33:35.957Z,20.10
2018-10-06T10:36:04.758Z,20.10
2018-10-06T10:38:33.424Z,20.40
2018-10-06T10:41:03.153Z,20.50
2018-10-06T10:43:31.462Z,20.40
2018-10-06T10:46:00.135Z,20.50
2018-10-06T10:48:28.952Z,20.30
2018-10-06T10:50:57.376Z,20.50
2018-10-06T10:53:26.332Z,20.70
2018-10-06T10:55:55.054Z,20.80
2018-10-06T10:58:23.430Z,20.90
2018-10-06T11:00:52.166Z,21.10
2018-10-06T11:03:20.817Z,21.20
2018-10-06T11:05:49.846Z,21.40
2018-10-06T11:08:19.252Z,21.50
2018-10-06T11:10:49.025Z,21.70
2018-10-06T11:13:17.756Z,21.70
2018-10-06T11:15:46.362Z,21.80
2018-10-06T11:18:15.029Z,21.80
2018-10-06T11:20:44.549Z,22.00
2018-10-06T11:23:13.173Z,22.10
2018-10-06T11:25:41.712Z,22.00
2018-10-06T11:28:10.383Z,22.10
2018-10-06T11:30:39.089Z,22.10
2018-10-06T11:33:07.940Z,22.10
2018-10-06T11:35:36.504Z,22.10
2018-10-06T11:38:05.174Z,22.20
2018-10-06T11:40:33.801Z,22.30
2018-10-06T11:43:02.641Z,22.20
2018-10-06T11:45:31.264Z,22.30
2018-10-06T11:48:00.100Z,22.40
2018-10-06T11:50:28.839Z,22.30
2018-10-06T11:52:57.562Z,22.40
2018-10-06T11:55:26.217Z,22.40
2018-10-06T11:57:54.860Z,22.50
2018-10-06T12:00:23.608Z,22.40
2018-10-06T12:02:52.131Z,22.30
2018-10-06T12:05:20.768Z,22.30
2018-10-06T12:07:49.583Z,22.50
2018-10-06T12:10:18.094Z,22.70
2018-10-06T12:12:46.703Z,22.80
2018-10-06T12:15:15.279Z,22.80
2018-10-06T12:17:45.390Z,22.60
2018-10-06T12:20:14.356Z,22.60
2018-10-06T12:22:42.937Z,22.70
2018-10-06T12:25:11.527Z,22.70
2018-10-06T12:27:41.175Z,22.50
2018-10-06T12:30:09.765Z,22.20
2018-10-06T12:32:38.377Z,22.30
2018-10-06T12:35:07.136Z,22.70
2018-10-06T12:37:36.739Z,22.90
2018-10-06T12:40:05.465Z,22.90
2018-10-06T12:42:34.009Z,22.90
2018-10-06T12:45:02.720Z,23.10
2018-10-06T12:47:31.346Z,23.20
2018-10-06T12:49:59.965Z,23.10
2018-10-06T12:52:28.569Z,23.30
2018-10-06T12:54:57.254Z,23.40
2018-10-06T12:57:26.068Z,23.30
2018-10-06T12:59:54.843Z,23.30
2018-10-06T13:02:24.640Z,23.30
2018-10-06T13:04:53.146Z,23.60
2018-10-06T13:07:22.072Z,23.60
2018-10-06T13:09:50.586Z,23.40
2018-10-06T13:12:19.479Z,23.40
2018-10-06T13:14:48.003Z,23.40
2018-10-06T13:17:16.614Z,23.40
2018-10-06T13:19:45.181Z,23.50
2018-10-06T13:22:13.700Z,23.40
2018-10-06T13:24:42.836Z,23.60
2018-10-06T13:27:11.156Z,23.60
2018-10-06T13:29:39.840Z,23.50
2018-10-06T13:32:08.476Z,23.70
2018-10-06T13:34:37.229Z,23.40
2018-10-06T13:37:06.097Z,23.50
2018-10-06T13:39:34.849Z,23.40
2018-10-06T13:42:03.388Z,23.30
2018-10-06T13:44:32.133Z,23.40
2018-10-06T13:47:00.863Z,23.40
2018-10-06T13:49:29.503Z,23.40
2018-10-06T13:51:58.217Z,23.10
2018-10-06T13:54:26.885Z,22.90
2018-10-06T13:56:55.616Z,23.10
2018-10-06T13:59:24.266Z,23.10
2018-10-06T14:01:53.129Z,23.30
2018-10-06T14:04:21.564Z,22.90
2018-10-06T14:06:50.099Z,22.90
2018-10-06T14:09:18.909Z,22.70
2018-10-06T14:11:47.522Z,22.60
2018-10-06T14:14:16.394Z,22.50
2018-10-06T14:16:45.069Z,22.40
2018-10-06T14:19:14.007Z,22.10
2018-10-06T14:21:42.645Z,22.10
2018-10-06T14:24:11.387Z,21.90
2018-10-06T14:26:39.833Z,21.90
2018-10-06T14:29:08.652Z,22.00
2018-10-06T14:31:37.283Z,21.60
2018-10-06T14:34:06.002Z,21.50
2018-10-06T14:36:35.846Z,21.90
2018-10-06T14:39:07.826Z,21.90
2018-10-06T14:41:36.266Z,21.80
2018-10-06T14:44:04.938Z,21.70
2018-10-06T14:46:33.600Z,21.40
2018-10-06T14:49:02.189Z,21.00
2018-10-06T14:51:30.881Z,20.70
2018-10-06T14:53:59.611Z,21.10
2018-10-06T14:56:28.476Z,21.30
2018-10-06T14:58:56.920Z,21.40
2018-10-06T15:01:25.738Z,21.40
2018-10-06T15:03:54.874Z,21.20
2018-10-06T15:06:23.231Z,21.20
2018-10-06T15:08:51.806Z,20.90
2018-10-06T15:11:21.505Z,20.40
2018-10-06T15:13:50.153Z,20.30
2018-10-06T15:16:18.801Z,20.30
2018-10-06T15:18:48.429Z,20.30
2018-10-06T15:21:17.200Z,20.40
2018-10-06T15:23:45.845Z,19.80
2018-10-06T15:26:14.374Z,19.50
2018-10-06T15:28:43.023Z,19.20
2018-10-06T15:31:11.643Z,19.10
2018-10-06T15:33:40.441Z,18.70
2018-10-06T15:36:08.986Z,18.50
2018-10-06T15:38:37.633Z,18.50
2018-10-06T15:41:06.154Z,18.60
2018-10-06T15:43:34.758Z,18.60
2018-10-06T15:46:03.486Z,18.40
2018-10-06T15:48:32.177Z,18.40
2018-10-06T15:51:01.054Z,18.40
2018-10-06T15:53:29.555Z,18.20
2018-10-06T15:55:58.189Z,18.20
2018-10-06T15:58:26.761Z,17.90
2018-10-06T16:00:55.285Z,17.80
2018-10-06T16:03:23.915Z,17.70
2018-10-06T16:05:53.914Z,17.50
2018-10-06T16:08:22.168Z,17.40
2018-10-06T16:10:51.009Z,17.50
2018-10-06T16:13:19.629Z,17.50
2018-10-06T16:15:48.203Z,17.40
2018-10-06T16:18:17.124Z,17.50
2018-10-06T16:20:45.621Z,17.40
2018-10-06T16:23:14.578Z,17.20
2018-10-06T16:25:42.997Z,17.00
2018-10-06T16:28:11.681Z,16.80
2018-10-06T16:30:40.569Z,16.80
2018-10-06T16:33:09.741Z,16.80
2018-10-06T16:35:38.580Z,16.80
2018-10-06T16:38:06.934Z,16.50
2018-10-06T16:40:35.556Z,16.50
2018-10-06T16:43:04.292Z,16.30
2018-10-06T16:45:33.113Z,16.30
2018-10-06T16:48:02.020Z,16.20
2018-10-06T16:50:30.543Z,16.20
2018-10-06T16:52:59.176Z,16.20
2018-10-06T16:55:27.717Z,16.20
2018-10-06T16:57:56.473Z,16.20
2018-10-06T17:00:25.208Z,16.10
2018-10-06T17:02:53.747Z,16.10
2018-10-06T17:05:23.839Z,15.90
2018-10-06T17:07:52.687Z,15.90
2018-10-06T17:10:20.838Z,15.90
2018-10-06T17:12:49.668Z,15.70
2018-10-06T17:15:18.355Z,15.70
2018-10-06T17:17:47.190Z,15.70
2018-10-06T17:20:16.452Z,15.60
2018-10-06T17:22:45.284Z,15.60
2018-10-06T17:25:13.788Z,15.60
2018-10-06T17:27:43.436Z,15.60
2018-10-06T17:30:11.965Z,15.50
2018-10-06T17:32:40.840Z,15.50
2018-10-06T17:35:09.301Z,15.40
2018-10-06T17:37:38.064Z,15.30
2018-10-06T17:40:06.606Z,15.40
2018-10-06T17:42:35.226Z,15.40
2018-10-06T17:45:03.950Z,15.40
2018-10-06T17:47:33.617Z,15.40
2018-10-06T17:50:02.393Z,15.40
2018-10-06T17:52:30.840Z,15.40
2018-10-06T17:54:59.453Z,15.40
2018-10-06T17:57:28.199Z,15.40
2018-10-06T17:59:57.167Z,15.40
2018-10-06T18:02:25.850Z,15.30
2018-10-06T18:04:55.093Z,15.30
2018-10-06T18:07:23.709Z,15.30
2018-10-06T18:09:52.484Z,15.20
2018-10-06T18:12:21.044Z,15.30
2018-10-06T18:14:49.617Z,15.20
2018-10-06T18:17:18.364Z,15.30
2018-10-06T18:19:46.996Z,15.20
2018-10-06T18:22:15.732Z,15.20
2018-10-06T18:24:47.441Z,15.20
2018-10-06T18:27:18.647Z,15.20
2018-10-06T18:29:46.772Z,15.20
2018-10-06T18:32:15.495Z,15.10
2018-10-06T18:34:44.235Z,14.90
2018-10-06T18:37:12.937Z,14.80
2018-10-06T18:39:41.738Z,14.90
2018-10-06T18:42:10.397Z,14.80
2018-10-06T18:44:38.931Z,14.80
2018-10-06T18:47:07.545Z,14.80
2018-10-06T18:49:36.201Z,14.60
2018-10-06T18:52:05.129Z,14.60
2018-10-06T18:54:33.463Z,14.60
2018-10-06T18:57:03.539Z,14.40
2018-10-06T18:59:32.650Z,14.40
2018-10-06T19:02:01.256Z,14.40
2018-10-06T19:04:29.893Z,14.40
2018-10-06T19:06:58.471Z,14.40
2018-10-06T19:09:27.051Z,14.40
2018-10-06T19:11:56.928Z,14.30
2018-10-06T19:14:25.205Z,14.20
2018-10-06T19:16:53.742Z,14.20
2018-10-06T19:19:25.826Z,14.20
2018-10-06T19:21:57.288Z,14.20
2018-10-06T19:24:25.957Z,14.10
2018-10-06T19:26:54.501Z,14.20
2018-10-06T19:29:23.067Z,14.20
2018-10-06T19:31:51.704Z,14.10
2018-10-06T19:34:20.353Z,14.00
2018-10-06T19:36:49.407Z,13.90
2018-10-06T19:39:17.949Z,13.90
2018-10-06T19:41:47.563Z,13.90
2018-10-06T19:44:16.199Z,13.80
2018-10-06T19:46:44.948Z,13.80
2018-10-06T19:49:13.477Z,13.70
2018-10-06T19:51:42.265Z,13.60
2018-10-06T19:54:10.725Z,13.60
2018-10-06T19:56:39.483Z,13.60
2018-10-06T19:59:09.095Z,13.50
2018-10-06T20:01:37.977Z,13.60
2018-10-06T20:04:06.472Z,13.50
2018-10-06T20:06:35.149Z,13.50
2018-10-06T20:09:06.258Z,13.50
2018-10-06T20:11:34.531Z,13.40
2018-10-06T20:14:06.330Z,13.40
2018-10-06T20:16:35.001Z,13.30
2018-10-06T20:19:03.575Z,13.20
2018-10-06T20:21:32.317Z,13.10
2018-10-06T20:24:00.888Z,13.20
2018-10-06T20:26:29.502Z,13.10
2018-10-06T20:29:10.379Z,13.10
2018-10-06T20:31:39.140Z,13.10
2018-10-06T20:34:07.656Z,13.10
2018-10-06T20:36:44.487Z,13.00
2018-10-06T20:39:12.628Z,12.90
2018-10-06T20:41:41.173Z,12.90
2018-10-06T20:44:09.836Z,12.80
2018-10-06T20:46:38.361Z,12.70
2018-10-06T20:49:07.180Z,12.70
2018-10-06T20:51:38.965Z,12.50
2018-10-06T20:54:07.730Z,12.50
2018-10-06T20:56:36.376Z,12.50
2018-10-06T20:59:05.388Z,12.60
2018-10-06T21:01:33.732Z,12.50
2018-10-06T21:04:03.628Z,12.60
2018-10-06T21:06:32.031Z,12.50
2018-10-06T21:09:00.721Z,12.50
2018-10-06T21:11:29.484Z,12.40
2018-10-06T21:13:58.257Z,12.30
2018-10-06T21:16:26.650Z,12.40
2018-10-06T21:18:55.305Z,12.30
2018-10-06T21:21:23.920Z,12.20
2018-10-06T21:23:52.468Z,12.20
2018-10-06T21:26:21.213Z,12.10
2018-10-06T21:28:51.118Z,12.10
2018-10-06T21:31:20.330Z,12.10
2018-10-06T21:33:48.905Z,12.00
2018-10-06T21:36:17.524Z,11.90
2018-10-06T21:38:46.312Z,11.90
2018-10-06T21:41:14.993Z,11.80
2018-10-06T21:43:43.438Z,11.70
2018-10-06T21:46:12.124Z,11.80
2018-10-06T21:48:40.792Z,11.70
2018-10-06T21:51:09.319Z,11.70
2018-10-06T21:53:38.053Z,11.70
2018-10-06T21:56:06.765Z,11.70
2018-10-06T21:58:35.385Z,11.70
2018-10-06T22:01:10.617Z,11.70
2018-10-06T22:03:40.548Z,11.70
2018-10-06T22:06:09.289Z,11.60
2018-10-06T22:08:38.279Z,11.60
2018-10-06T22:11:06.573Z,11.50
2018-10-06T22:13:35.067Z,11.40
2018-10-06T22:16:03.865Z,11.40
2018-10-06T22:18:32.393Z,11.30
2018-10-06T22:21:01.049Z,11.30
2018-10-06T22:23:29.604Z,11.30
2018-10-06T22:25:58.196Z,11.20
2018-10-06T22:28:27.047Z,11.30
2018-10-06T22:30:55.837Z,11.20
2018-10-06T22:33:24.201Z,11.20
2018-10-06T22:35:52.720Z,11.20
2018-10-06T22:38:21.393Z,11.20
2018-10-06T22:40:50.097Z,11.20
2018-10-06T22:43:20.132Z,11.20
2018-10-06T22:45:48.365Z,11.20
2018-10-06T22:48:16.910Z,11.20
2018-10-06T22:50:45.657Z,11.20
2018-10-06T22:53:14.269Z,11.20
2018-10-06T22:55:43.000Z,11.10
2018-10-06T22:58:11.619Z,11.10
2018-10-06T23:00:40.190Z,11.10
2018-10-06T23:03:08.928Z,11.10
2018-10-06T23:05:37.869Z,11.10
2018-10-06T23:08:06.398Z,11.10
2018-10-06T23:10:35.050Z,11.10
2018-10-06T23:13:04.120Z,11.10
2018-10-06T23:15:33.248Z,11.10
2018-10-06T23:18:01.979Z,11.10
2018-10-06T23:20:30.784Z,11.20
2018-10-06T23:22:59.508Z,11.20
2018-10-06T23:25:28.125Z,11.20
2018-10-06T23:27:56.589Z,11.20
2018-10-06T23:30:25.262Z,11.20
2018-10-06T23:32:55.044Z,11.20
2018-10-06T23:35:23.685Z,11.20
2018-10-06T23:37:52.842Z,11.10
2018-10-06T23:40:21.878Z,11.20
2018-10-06T23:42:50.626Z,11.20
2018-10-06T23:45:19.157Z,11.20
2018-10-06T23:47:47.892Z,11.20
2018-10-06T23:50:16.600Z,11.20
2018-10-06T23:52:45.222Z,11.20
2018-10-06T23:55:13.853Z,11.20
2018-10-06T23:57:42.480Z,11.20
